sensor_id;sensor_type;location;lat;lon;timestamp;pressure;altitude;pressure_sealevel;temperature;humidity
30682;BME280;17439;48.092;11.842;2023-05-21T00:01:17;95058.63;;;18.23;51.55
30682;BME280;17439;48.092;11.842;2023-05-21T00:03:44;95053.06;;;18.20;51.44
30682;BME280;17439;48.092;11.842;2023-05-21T00:06:11;95048.34;;;18.17;51.08
30682;BME280;17439;48.092;11.842;2023-05-21T00:08:38;95047.91;;;18.15;51.08
30682;BME280;17439;48.092;11.842;2023-05-21T00:11:05;95047.91;;;18.15;50.76
30682;BME280;17439;48.092;11.842;2023-05-21T00:13:32;95050.22;;;18.12;50.77
30682;BME280;17439;48.092;11.842;2023-05-21T00:15:58;95048.22;;;18.09;50.80
30682;BME280;17439;48.092;11.842;2023-05-21T00:18:25;95039.56;;;18.07;50.43
30682;BME280;17439;48.092;11.842;2023-05-21T00:20:52;95036.38;;;18.05;50.46
30682;BME280;17439;48.092;11.842;2023-05-21T00:23:19;95038.72;;;18.03;50.33
30682;BME280;17439;48.092;11.842;2023-05-21T00:25:45;95030.06;;;18.01;50.41
30682;BME280;17439;48.092;11.842;2023-05-21T00:28:12;95026.91;;;17.99;50.14
30682;BME280;17439;48.092;11.842;2023-05-21T00:30:39;95025.69;;;17.97;50.12
30682;BME280;17439;48.092;11.842;2023-05-21T00:33:05;95021.34;;;17.95;50.16
30682;BME280;17439;48.092;11.842;2023-05-21T00:35:32;95018.97;;;17.94;49.91
30682;BME280;17439;48.092;11.842;2023-05-21T00:38:00;95024.44;;;17.90;49.86
30682;BME280;17439;48.092;11.842;2023-05-21T00:40:26;95022.81;;;17.89;50.12
30682;BME280;17439;48.092;11.842;2023-05-21T00:42:53;95017.72;;;17.88;50.04
30682;BME280;17439;48.092;11.842;2023-05-21T00:45:20;95015.69;;;17.85;50.09
30682;BME280;17439;48.092;11.842;2023-05-21T00:47:46;95014.13;;;17.84;49.80
30682;BME280;17439;48.092;11.842;2023-05-21T00:50:14;95019.59;;;17.84;50.07
30682;BME280;17439;48.092;11.842;2023-05-21T00:52:42;95020.31;;;17.81;49.74
30682;BME280;17439;48.092;11.842;2023-05-21T00:55:09;95026.19;;;17.79;49.66
30682;BME280;17439;48.092;11.842;2023-05-21T00:57:36;95009.31;;;17.77;49.66
30682;BME280;17439;48.092;11.842;2023-05-21T01:00:04;95014.00;;;17.76;49.64
30682;BME280;17439;48.092;11.842;2023-05-21T01:02:31;95017.09;;;17.75;49.45
30682;BME280;17439;48.092;11.842;2023-05-21T01:04:57;95017.47;;;17.73;49.59
30682;BME280;17439;48.092;11.842;2023-05-21T01:07:24;95015.91;;;17.72;49.71
30682;BME280;17439;48.092;11.842;2023-05-21T01:09:51;95010.78;;;17.71;49.44
30682;BME280;17439;48.092;11.842;2023-05-21T01:12:19;95015.91;;;17.72;49.41
30682;BME280;17439;48.092;11.842;2023-05-21T01:14:46;95012.97;;;17.62;49.42
30682;BME280;17439;48.092;11.842;2023-05-21T01:17:14;95004.81;;;17.65;49.47
30682;BME280;17439;48.092;11.842;2023-05-21T01:19:42;95013.03;;;17.65;49.29
30682;BME280;17439;48.092;11.842;2023-05-21T01:22:11;95009.88;;;17.63;49.25
30682;BME280;17439;48.092;11.842;2023-05-21T01:24:38;95007.50;;;17.62;49.58
30682;BME280;17439;48.092;11.842;2023-05-21T01:27:05;95010.59;;;17.60;49.36
30682;BME280;17439;48.092;11.842;2023-05-21T01:29:32;95004.72;;;17.58;49.28
30682;BME280;17439;48.092;11.842;2023-05-21T01:32:20;95005.00;;;17.53;48.81
30682;BME280;17439;48.092;11.842;2023-05-21T01:35:10;95011.19;;;17.50;48.56
30682;BME280;17439;48.092;11.842;2023-05-21T01:37:51;95004.94;;;17.49;49.00
30682;BME280;17439;48.092;11.842;2023-05-21T01:40:25;94999.81;;;17.48;48.85
30682;BME280;17439;48.092;11.842;2023-05-21T01:42:55;95001.00;;;17.47;49.24
30682;BME280;17439;48.092;11.842;2023-05-21T01:45:24;94993.50;;;17.44;48.91
30682;BME280;17439;48.092;11.842;2023-05-21T01:47:54;94991.13;;;17.42;49.16
30682;BME280;17439;48.092;11.842;2023-05-21T01:50:22;94994.25;;;17.40;49.08
30682;BME280;17439;48.092;11.842;2023-05-21T01:52:56;94990.53;;;17.29;48.89
30682;BME280;17439;48.092;11.842;2023-05-21T01:55:22;94989.41;;;17.34;49.24
30682;BME280;17439;48.092;11.842;2023-05-21T01:57:51;94984.75;;;17.34;49.25
30682;BME280;17439;48.092;11.842;2023-05-21T02:00:19;94989.00;;;17.32;49.11
30682;BME280;17439;48.092;11.842;2023-05-21T02:02:47;94991.31;;;17.30;49.22
30682;BME280;17439;48.092;11.842;2023-05-21T02:05:14;94994.34;;;17.25;49.31
30682;BME280;17439;48.092;11.842;2023-05-21T02:07:41;94999.03;;;17.24;49.22
30682;BME280;17439;48.092;11.842;2023-05-21T02:10:08;94990.41;;;17.22;49.05
30682;BME280;17439;48.092;11.842;2023-05-21T02:12:35;94986.41;;;17.19;49.31
30682;BME280;17439;48.092;11.842;2023-05-21T02:15:03;94995.00;;;17.18;49.22
30682;BME280;17439;48.092;11.842;2023-05-21T02:17:30;94993.44;;;17.17;49.47
30682;BME280;17439;48.092;11.842;2023-05-21T02:19:57;94994.94;;;17.14;49.23
30682;BME280;17439;48.092;11.842;2023-05-21T02:22:23;94992.56;;;17.13;49.35
30682;BME280;17439;48.092;11.842;2023-05-21T02:24:50;94996.84;;;17.10;49.62
30682;BME280;17439;48.092;11.842;2023-05-21T02:27:17;94998.34;;;17.08;49.53
30682;BME280;17439;48.092;11.842;2023-05-21T02:29:43;94995.19;;;17.06;49.79
30682;BME280;17439;48.092;11.842;2023-05-21T02:32:10;94989.28;;;17.03;49.67
30682;BME280;17439;48.092;11.842;2023-05-21T02:34:37;94996.28;;;17.01;49.67
30682;BME280;17439;48.092;11.842;2023-05-21T02:37:04;94990.75;;;16.97;49.85
30682;BME280;17439;48.092;11.842;2023-05-21T02:39:31;94995.34;;;16.93;49.88
30682;BME280;17439;48.092;11.842;2023-05-21T02:41:57;94995.72;;;16.92;50.11
30682;BME280;17439;48.092;11.842;2023-05-21T02:44:24;94989.00;;;16.89;49.91
30682;BME280;17439;48.092;11.842;2023-05-21T02:46:51;94988.13;;;16.85;50.06
30682;BME280;17439;48.092;11.842;2023-05-21T02:49:18;94983.38;;;16.82;50.12
30682;BME280;17439;48.092;11.842;2023-05-21T02:51:46;94989.59;;;16.79;50.02
30682;BME280;17439;48.092;11.842;2023-05-21T02:54:14;94994.63;;;16.77;50.08
30682;BME280;17439;48.092;11.842;2023-05-21T02:56:40;94991.03;;;16.73;50.29
30682;BME280;17439;48.092;11.842;2023-05-21T02:59:07;94988.66;;;16.71;50.05
30682;BME280;17439;48.092;11.842;2023-05-21T03:01:35;94988.59;;;16.67;50.09
30682;BME280;17439;48.092;11.842;2023-05-21T03:04:02;94987.00;;;16.66;50.13
30682;BME280;17439;48.092;11.842;2023-05-21T03:06:29;94983.06;;;16.64;50.36
30682;BME280;17439;48.092;11.842;2023-05-21T03:08:56;94982.25;;;16.63;50.33
30682;BME280;17439;48.092;11.842;2023-05-21T03:11:22;94986.16;;;16.62;50.15
30682;BME280;17439;48.092;11.842;2023-05-21T03:13:49;94973.25;;;16.63;50.22
30682;BME280;17439;48.092;11.842;2023-05-21T03:16:16;94981.81;;;16.61;50.33
30682;BME280;17439;48.092;11.842;2023-05-21T03:18:42;94979.50;;;16.63;50.21
30682;BME280;17439;48.092;11.842;2023-05-21T03:21:09;94970.50;;;16.63;50.21
30682;BME280;17439;48.092;11.842;2023-05-21T03:23:36;94969.38;;;16.64;50.17
30682;BME280;17439;48.092;11.842;2023-05-21T03:26:03;94970.94;;;16.65;50.23
30682;BME280;17439;48.092;11.842;2023-05-21T03:28:30;94964.69;;;16.64;50.17
30682;BME280;17439;48.092;11.842;2023-05-21T03:30:57;94961.56;;;16.66;50.03
30682;BME280;17439;48.092;11.842;2023-05-21T03:33:30;94962.34;;;16.66;50.25
30682;BME280;17439;48.092;11.842;2023-05-21T03:35:57;94966.69;;;16.67;50.22
30682;BME280;17439;48.092;11.842;2023-05-21T03:38:27;94964.75;;;16.68;50.32
30682;BME280;17439;48.092;11.842;2023-05-21T03:40:54;94971.00;;;16.68;50.21
30682;BME280;17439;48.092;11.842;2023-05-21T03:43:21;94976.47;;;16.68;50.22
30682;BME280;17439;48.092;11.842;2023-05-21T03:45:47;94976.47;;;16.68;50.06
30682;BME280;17439;48.092;11.842;2023-05-21T03:48:40;94978.41;;;16.68;50.36
30682;BME280;17439;48.092;11.842;2023-05-21T03:51:09;94974.53;;;16.69;50.34
30682;BME280;17439;48.092;11.842;2023-05-21T03:53:36;94976.09;;;16.70;50.15
30682;BME280;17439;48.092;11.842;2023-05-21T03:56:03;94969.06;;;16.69;50.52
30682;BME280;17439;48.092;11.842;2023-05-21T03:58:31;94969.84;;;16.69;50.53
30682;BME280;17439;48.092;11.842;2023-05-21T04:00:58;94967.13;;;16.69;50.53
30682;BME280;17439;48.092;11.842;2023-05-21T04:03:24;94972.22;;;16.71;50.63
30682;BME280;17439;48.092;11.842;2023-05-21T04:05:51;94978.47;;;16.72;50.58
30682;BME280;17439;48.092;11.842;2023-05-21T04:08:18;94975.38;;;16.73;50.69
30682;BME280;17439;48.092;11.842;2023-05-21T04:10:46;94977.75;;;16.75;50.70
30682;BME280;17439;48.092;11.842;2023-05-21T04:13:14;94974.25;;;16.74;50.83
30682;BME280;17439;48.092;11.842;2023-05-21T04:15:40;94968.03;;;16.77;50.80
30682;BME280;17439;48.092;11.842;2023-05-21T04:18:07;94963.81;;;16.80;50.64
30682;BME280;17439;48.092;11.842;2023-05-21T04:20:34;94970.84;;;16.81;50.52
30682;BME280;17439;48.092;11.842;2023-05-21T04:23:00;94968.53;;;16.83;50.51
30682;BME280;17439;48.092;11.842;2023-05-21T04:25:27;94971.72;;;16.85;50.74
30682;BME280;17439;48.092;11.842;2023-05-21T04:27:55;94978.41;;;16.88;50.61
30682;BME280;17439;48.092;11.842;2023-05-21T04:30:22;94978.16;;;16.93;50.51
30682;BME280;17439;48.092;11.842;2023-05-21T04:32:49;94978.22;;;16.96;50.55
30682;BME280;17439;48.092;11.842;2023-05-21T04:35:16;94988.44;;;16.99;50.59
30682;BME280;17439;48.092;11.842;2023-05-21T04:37:43;94982.22;;;17.02;50.55
30682;BME280;17439;48.092;11.842;2023-05-21T04:40:10;94990.88;;;17.04;50.46
30682;BME280;17439;48.092;11.842;2023-05-21T04:42:37;94978.75;;;17.06;50.82
30682;BME280;17439;48.092;11.842;2023-05-21T04:45:04;94977.69;;;17.10;50.54
30682;BME280;17439;48.092;11.842;2023-05-21T04:47:34;94972.66;;;17.16;50.33
30682;BME280;17439;48.092;11.842;2023-05-21T04:50:02;94988.78;;;17.21;50.51
30682;BME280;17439;48.092;11.842;2023-05-21T04:52:29;94982.59;;;17.24;50.38
30682;BME280;17439;48.092;11.842;2023-05-21T04:54:57;94984.19;;;17.25;50.36
30682;BME280;17439;48.092;11.842;2023-05-21T04:57:24;94979.13;;;17.27;50.57
30682;BME280;17439;48.092;11.842;2023-05-21T04:59:50;94979.56;;;17.29;50.46
30682;BME280;17439;48.092;11.842;2023-05-21T05:02:17;94980.41;;;17.33;50.49
30682;BME280;17439;48.092;11.842;2023-05-21T05:04:44;94973.38;;;17.32;50.46
30682;BME280;17439;48.092;11.842;2023-05-21T05:07:11;94980.09;;;17.38;50.52
30682;BME280;17439;48.092;11.842;2023-05-21T05:09:38;94975.06;;;17.40;50.51
30682;BME280;17439;48.092;11.842;2023-05-21T05:12:05;94986.84;;;17.45;50.57
30682;BME280;17439;48.092;11.842;2023-05-21T05:14:31;94977.13;;;17.47;50.53
30682;BME280;17439;48.092;11.842;2023-05-21T05:16:58;94977.16;;;17.51;50.63
30682;BME280;17439;48.092;11.842;2023-05-21T05:19:26;94985.06;;;17.56;50.64
30682;BME280;17439;48.092;11.842;2023-05-21T05:21:53;94980.09;;;17.62;50.58
30682;BME280;17439;48.092;11.842;2023-05-21T05:24:20;94985.63;;;17.65;50.27
30682;BME280;17439;48.092;11.842;2023-05-21T05:26:46;94975.16;;;17.71;50.58
30682;BME280;17439;48.092;11.842;2023-05-21T05:29:14;94977.94;;;17.74;50.12
30682;BME280;17439;48.092;11.842;2023-05-21T05:31:41;94985.44;;;17.77;50.05
30682;BME280;17439;48.092;11.842;2023-05-21T05:34:08;94980.03;;;17.85;49.92
30682;BME280;17439;48.092;11.842;2023-05-21T05:36:34;94983.28;;;17.90;49.67
30682;BME280;17439;48.092;11.842;2023-05-21T05:39:02;94980.59;;;17.94;49.56
30682;BME280;17439;48.092;11.842;2023-05-21T05:41:28;94981.44;;;17.98;49.55
30682;BME280;17439;48.092;11.842;2023-05-21T05:43:55;94982.28;;;18.02;49.63
30682;BME280;17439;48.092;11.842;2023-05-21T05:46:25;94980.78;;;18.08;49.89
30682;BME280;17439;48.092;11.842;2023-05-21T05:48:51;94980.50;;;18.13;49.46
30682;BME280;17439;48.092;11.842;2023-05-21T05:51:18;94987.22;;;18.20;49.62
30682;BME280;17439;48.092;11.842;2023-05-21T05:53:45;94988.47;;;18.26;49.56
30682;BME280;17439;48.092;11.842;2023-05-21T05:56:11;94990.19;;;18.34;49.19
30682;BME280;17439;48.092;11.842;2023-05-21T05:58:38;94986.38;;;18.42;49.26
30682;BME280;17439;48.092;11.842;2023-05-21T06:01:11;94984.50;;;18.50;49.43
30682;BME280;17439;48.092;11.842;2023-05-21T06:03:38;94995.56;;;18.57;48.69
30682;BME280;17439;48.092;11.842;2023-05-21T06:06:12;94987.84;;;18.66;48.52
30682;BME280;17439;48.092;11.842;2023-05-21T06:08:39;94986.72;;;18.71;48.72
30682;BME280;17439;48.092;11.842;2023-05-21T06:11:06;94986.38;;;18.76;48.73
30682;BME280;17439;48.092;11.842;2023-05-21T06:13:33;94993.56;;;18.84;48.39
30682;BME280;17439;48.092;11.842;2023-05-21T06:16:02;94988.16;;;18.92;48.21
30682;BME280;17439;48.092;11.842;2023-05-21T06:18:28;94987.81;;;18.97;48.33
30682;BME280;17439;48.092;11.842;2023-05-21T06:20:55;94990.22;;;19.06;48.10
30682;BME280;17439;48.092;11.842;2023-05-21T06:23:22;94984.44;;;19.11;48.40
30682;BME280;17439;48.092;11.842;2023-05-21T06:25:49;94988.78;;;19.15;48.32
30682;BME280;17439;48.092;11.842;2023-05-21T06:28:16;94988.47;;;19.24;47.64
30682;BME280;17439;48.092;11.842;2023-05-21T06:30:44;94991.69;;;19.30;47.78
30682;BME280;17439;48.092;11.842;2023-05-21T06:33:10;94988.56;;;19.35;47.76
30682;BME280;17439;48.092;11.842;2023-05-21T06:35:37;94986.63;;;19.39;48.14
30682;BME280;17439;48.092;11.842;2023-05-21T06:38:05;94986.31;;;19.44;47.61
30682;BME280;17439;48.092;11.842;2023-05-21T06:40:33;94986.34;;;19.48;47.56
30682;BME280;17439;48.092;11.842;2023-05-21T06:43:01;94981.66;;;19.52;47.88
30682;BME280;17439;48.092;11.842;2023-05-21T06:45:46;94989.56;;;19.57;47.77
30682;BME280;17439;48.092;11.842;2023-05-21T06:48:33;94988.81;;;19.60;47.42
30682;BME280;17439;48.092;11.842;2023-05-21T06:51:00;94990.03;;;19.66;47.74
30682;BME280;17439;48.092;11.842;2023-05-21T06:53:26;94992.41;;;19.71;47.59
30682;BME280;17439;48.092;11.842;2023-05-21T06:55:53;94995.97;;;19.75;47.45
30682;BME280;17439;48.092;11.842;2023-05-21T06:58:32;94996.44;;;19.81;47.73
30682;BME280;17439;48.092;11.842;2023-05-21T07:00:59;95007.09;;;19.86;47.35
30682;BME280;17439;48.092;11.842;2023-05-21T07:03:26;95004.41;;;19.93;46.50
30682;BME280;17439;48.092;11.842;2023-05-21T07:05:53;95002.44;;;19.98;47.01
30682;BME280;17439;48.092;11.842;2023-05-21T07:08:20;94998.94;;;20.01;46.88
30682;BME280;17439;48.092;11.842;2023-05-21T07:10:48;94998.94;;;20.01;46.27
30682;BME280;17439;48.092;11.842;2023-05-21T07:13:15;95002.53;;;20.08;46.13
30682;BME280;17439;48.092;11.842;2023-05-21T07:15:42;95001.75;;;20.11;46.13
30682;BME280;17439;48.092;11.842;2023-05-21T07:18:09;95002.59;;;20.16;46.74
30682;BME280;17439;48.092;11.842;2023-05-21T07:20:37;95005.75;;;20.21;47.16
30682;BME280;17439;48.092;11.842;2023-05-21T07:23:06;95000.31;;;20.28;47.24
30682;BME280;17439;48.092;11.842;2023-05-21T07:25:33;94994.81;;;20.36;47.27
30682;BME280;17439;48.092;11.842;2023-05-21T07:28:00;94998.78;;;20.42;47.06
30682;BME280;17439;48.092;11.842;2023-05-21T07:30:27;95002.38;;;20.46;47.18
30682;BME280;17439;48.092;11.842;2023-05-21T07:32:53;95009.09;;;20.56;46.97
30682;BME280;17439;48.092;11.842;2023-05-21T07:35:21;95010.25;;;20.51;47.05
30682;BME280;17439;48.092;11.842;2023-05-21T07:37:48;95005.59;;;20.62;46.71
30682;BME280;17439;48.092;11.842;2023-05-21T07:40:15;95005.66;;;20.73;46.82
30682;BME280;17439;48.092;11.842;2023-05-21T07:42:42;95003.31;;;20.79;46.97
30682;BME280;17439;48.092;11.842;2023-05-21T07:45:16;95004.50;;;20.85;47.22
30682;BME280;17439;48.092;11.842;2023-05-21T07:47:43;95011.63;;;20.90;47.56
30682;BME280;17439;48.092;11.842;2023-05-21T07:50:11;95008.88;;;20.86;47.47
30682;BME280;17439;48.092;11.842;2023-05-21T07:52:38;95000.63;;;21.00;47.44
30682;BME280;17439;48.092;11.842;2023-05-21T07:55:05;95005.38;;;21.11;47.64
30682;BME280;17439;48.092;11.842;2023-05-21T07:57:34;94999.50;;;21.19;47.85
30682;BME280;17439;48.092;11.842;2023-05-21T08:00:07;95007.00;;;21.30;47.82
30682;BME280;17439;48.092;11.842;2023-05-21T08:02:40;94997.59;;;21.38;48.36
30682;BME280;17439;48.092;11.842;2023-05-21T08:05:10;95000.72;;;21.47;48.47
30682;BME280;17439;48.092;11.842;2023-05-21T08:07:37;94996.84;;;21.59;48.61
30682;BME280;17439;48.092;11.842;2023-05-21T08:10:04;94998.41;;;21.74;48.47
30682;BME280;17439;48.092;11.842;2023-05-21T08:12:31;94999.97;;;21.93;48.17
30682;BME280;17439;48.092;11.842;2023-05-21T08:14:58;94996.41;;;22.11;48.37
30682;BME280;17439;48.092;11.842;2023-05-21T08:17:25;94995.97;;;22.27;47.54
30682;BME280;17439;48.092;11.842;2023-05-21T08:19:53;94999.91;;;22.48;46.08
30682;BME280;17439;48.092;11.842;2023-05-21T08:22:19;94999.84;;;22.69;45.34
30682;BME280;17439;48.092;11.842;2023-05-21T08:24:46;95000.97;;;22.90;44.33
30682;BME280;17439;48.092;11.842;2023-05-21T08:27:13;94998.09;;;23.11;42.42
30682;BME280;17439;48.092;11.842;2023-05-21T08:29:40;95000.41;;;23.24;41.48
30682;BME280;17439;48.092;11.842;2023-05-21T08:32:07;95011.34;;;23.45;39.77
30682;BME280;17439;48.092;11.842;2023-05-21T08:34:35;94993.06;;;23.59;40.11
30682;BME280;17439;48.092;11.842;2023-05-21T08:37:25;94990.59;;;23.71;39.71
30682;BME280;17439;48.092;11.842;2023-05-21T08:39:59;94994.88;;;23.87;40.66
30682;BME280;17439;48.092;11.842;2023-05-21T08:42:39;94998.69;;;24.00;40.28
30682;BME280;17439;48.092;11.842;2023-05-21T08:45:13;94989.84;;;24.16;40.59
30682;BME280;17439;48.092;11.842;2023-05-21T08:47:40;94990.19;;;24.22;41.58
30682;BME280;17439;48.092;11.842;2023-05-21T08:50:12;94988.72;;;24.52;38.77
30682;BME280;17439;48.092;11.842;2023-05-21T08:52:40;94992.06;;;24.70;38.31
30682;BME280;17439;48.092;11.842;2023-05-21T08:55:08;94995.88;;;24.84;37.27
30682;BME280;17439;48.092;11.842;2023-05-21T08:57:41;94986.59;;;24.97;37.34
30682;BME280;17439;48.092;11.842;2023-05-21T09:00:09;94990.06;;;25.05;37.09
30682;BME280;17439;48.092;11.842;2023-05-21T09:02:37;94998.34;;;25.09;36.41
30682;BME280;17439;48.092;11.842;2023-05-21T09:05:05;94993.47;;;25.16;35.88
30682;BME280;17439;48.092;11.842;2023-05-21T09:07:33;94991.22;;;25.08;34.23
30682;BME280;17439;48.092;11.842;2023-05-21T09:10:13;94993.56;;;25.40;35.48
30682;BME280;17439;48.092;11.842;2023-05-21T09:12:41;94997.38;;;25.50;35.11
30682;BME280;17439;48.092;11.842;2023-05-21T09:15:08;94995.25;;;25.61;35.39
30682;BME280;17439;48.092;11.842;2023-05-21T09:17:37;94993.53;;;25.71;35.89
30682;BME280;17439;48.092;11.842;2023-05-21T09:20:34;94997.41;;;25.77;36.35
30682;BME280;17439;48.092;11.842;2023-05-21T09:23:03;94999.22;;;25.87;35.96
30682;BME280;17439;48.092;11.842;2023-05-21T09:25:31;94991.88;;;26.01;34.28
30682;BME280;17439;48.092;11.842;2023-05-21T09:28:10;94997.38;;;26.04;35.34
30682;BME280;17439;48.092;11.842;2023-05-21T09:30:50;94998.50;;;26.07;35.95
30682;BME280;17439;48.092;11.842;2023-05-21T09:33:24;94998.09;;;26.09;35.44
30682;BME280;17439;48.092;11.842;2023-05-21T09:35:54;95004.72;;;26.15;34.89
30682;BME280;17439;48.092;11.842;2023-05-21T09:38:21;95005.97;;;26.14;34.53
30682;BME280;17439;48.092;11.842;2023-05-21T09:40:48;95002.09;;;26.08;35.26
30682;BME280;17439;48.092;11.842;2023-05-21T09:43:16;95007.41;;;25.98;35.31
30682;BME280;17439;48.092;11.842;2023-05-21T09:45:53;94995.81;;;26.03;33.16
30682;BME280;17439;48.092;11.842;2023-05-21T09:48:34;95004.13;;;26.03;35.21
30682;BME280;17439;48.092;11.842;2023-05-21T09:51:19;94994.22;;;26.02;34.81
30682;BME280;17439;48.092;11.842;2023-05-21T09:53:55;95006.97;;;26.00;34.53
30682;BME280;17439;48.092;11.842;2023-05-21T09:56:24;95006.16;;;25.99;35.20
30682;BME280;17439;48.092;11.842;2023-05-21T09:58:52;95011.38;;;25.97;34.89
30682;BME280;17439;48.092;11.842;2023-05-21T10:01:20;95000.25;;;25.97;35.04
30682;BME280;17439;48.092;11.842;2023-05-21T10:03:52;94995.06;;;25.99;33.84
30682;BME280;17439;48.092;11.842;2023-05-21T10:06:20;94997.81;;;26.03;34.44
30682;BME280;17439;48.092;11.842;2023-05-21T10:08:51;94999.66;;;26.10;33.68
30682;BME280;17439;48.092;11.842;2023-05-21T10:11:21;94992.78;;;26.18;34.78
30682;BME280;17439;48.092;11.842;2023-05-21T10:13:51;94993.19;;;26.16;33.56
30682;BME280;17439;48.092;11.842;2023-05-21T10:16:21;94980.69;;;26.28;33.94
30682;BME280;17439;48.092;11.842;2023-05-21T10:18:48;94979.34;;;26.36;33.52
30682;BME280;17439;48.092;11.842;2023-05-21T10:21:15;94987.00;;;26.52;33.41
30682;BME280;17439;48.092;11.842;2023-05-21T10:23:43;94979.25;;;26.64;34.25
30682;BME280;17439;48.092;11.842;2023-05-21T10:26:11;94975.56;;;26.70;33.58
30682;BME280;17439;48.092;11.842;2023-05-21T10:28:38;94979.31;;;26.80;33.37
30682;BME280;17439;48.092;11.842;2023-05-21T10:31:05;94977.97;;;26.88;33.09
30682;BME280;17439;48.092;11.842;2023-05-21T10:33:34;94975.78;;;27.00;31.59
30682;BME280;17439;48.092;11.842;2023-05-21T10:36:01;94971.44;;;27.15;30.86
30682;BME280;17439;48.092;11.842;2023-05-21T10:38:28;94974.53;;;27.21;31.32
30682;BME280;17439;48.092;11.842;2023-05-21T10:40:55;94983.38;;;27.15;32.03
30682;BME280;17439;48.092;11.842;2023-05-21T10:47:07;94976.34;;;27.47;30.85
30682;BME280;17439;48.092;11.842;2023-05-21T10:50:25;94968.50;;;27.42;28.39
30682;BME280;17439;48.092;11.842;2023-05-21T10:52:38;94969.38;;;27.56;28.43
30682;BME280;17439;48.092;11.842;2023-05-21T10:55:22;94958.44;;;27.65;29.74
30682;BME280;17439;48.092;11.842;2023-05-21T11:00:28;94971.16;;;27.82;29.12
30682;BME280;17439;48.092;11.842;2023-05-21T11:02:56;94960.78;;;27.83;29.47
30682;BME280;17439;48.092;11.842;2023-05-21T11:05:57;94962.78;;;27.82;28.02
30682;BME280;17439;48.092;11.842;2023-05-21T11:08:26;94958.44;;;27.98;28.00
30682;BME280;17439;48.092;11.842;2023-05-21T11:10:54;94956.69;;;28.04;29.06
30682;BME280;17439;48.092;11.842;2023-05-21T11:13:21;94958.81;;;28.00;28.56
30682;BME280;17439;48.092;11.842;2023-05-21T11:21:05;94950.75;;;28.18;29.73
30682;BME280;17439;48.092;11.842;2023-05-21T11:23:53;94946.28;;;28.37;28.98
30682;BME280;17439;48.092;11.842;2023-05-21T11:26:22;94952.16;;;28.56;26.88
30682;BME280;17439;48.092;11.842;2023-05-21T11:28:50;94941.78;;;28.56;28.70
30682;BME280;17439;48.092;11.842;2023-05-21T11:31:32;94954.44;;;28.61;28.85
30682;BME280;17439;48.092;11.842;2023-05-21T11:34:18;94941.63;;;28.64;25.91
30682;BME280;17439;48.092;11.842;2023-05-21T11:36:46;94941.41;;;28.71;28.91
30682;BME280;17439;48.092;11.842;2023-05-21T11:39:14;94947.69;;;28.88;27.60
30682;BME280;17439;48.092;11.842;2023-05-21T11:42:00;94943.81;;;28.98;28.86
30682;BME280;17439;48.092;11.842;2023-05-21T11:44:56;94945.81;;;28.98;26.58
30682;BME280;17439;48.092;11.842;2023-05-21T11:47:24;94943.16;;;29.07;27.20
30682;BME280;17439;48.092;11.842;2023-05-21T11:49:51;94950.41;;;29.17;27.34
30682;BME280;17439;48.092;11.842;2023-05-21T11:52:18;94948.88;;;29.16;26.59
30682;BME280;17439;48.092;11.842;2023-05-21T11:54:46;94952.22;;;29.24;26.74
30682;BME280;17439;48.092;11.842;2023-05-21T11:57:13;94945.88;;;29.23;26.67
30682;BME280;17439;48.092;11.842;2023-05-21T11:59:40;94947.78;;;29.26;25.91
30682;BME280;17439;48.092;11.842;2023-05-21T12:02:07;94940.53;;;29.29;26.00
30682;BME280;17439;48.092;11.842;2023-05-21T12:04:35;94944.34;;;29.35;24.45
30682;BME280;17439;48.092;11.842;2023-05-21T12:07:05;94937.88;;;29.38;24.48
30682;BME280;17439;48.092;11.842;2023-05-21T12:09:42;94946.00;;;29.33;25.59
30682;BME280;17439;48.092;11.842;2023-05-21T12:12:12;94938.63;;;29.26;25.17
30682;BME280;17439;48.092;11.842;2023-05-21T12:14:42;94938.84;;;29.31;25.57
30682;BME280;17439;48.092;11.842;2023-05-21T12:17:09;94943.22;;;29.33;25.69
30682;BME280;17439;48.092;11.842;2023-05-21T12:19:36;94942.66;;;29.38;26.16
30682;BME280;17439;48.092;11.842;2023-05-21T12:22:04;94941.75;;;29.41;26.33
30682;BME280;17439;48.092;11.842;2023-05-21T12:24:32;94942.75;;;29.47;26.19
30682;BME280;17439;48.092;11.842;2023-05-21T12:26:59;94939.28;;;29.43;27.64
30682;BME280;17439;48.092;11.842;2023-05-21T12:29:26;94943.66;;;29.44;26.67
30682;BME280;17439;48.092;11.842;2023-05-21T12:31:53;94939.19;;;29.59;26.80
30682;BME280;17439;48.092;11.842;2023-05-21T12:34:40;94943.19;;;29.58;24.22
30682;BME280;17439;48.092;11.842;2023-05-21T12:37:07;94936.50;;;29.69;24.51
30682;BME280;17439;48.092;11.842;2023-05-21T12:39:38;94932.59;;;29.66;23.94
30682;BME280;17439;48.092;11.842;2023-05-21T12:42:05;94942.28;;;29.74;25.78
30682;BME280;17439;48.092;11.842;2023-05-21T12:44:32;94941.31;;;29.81;25.17
30682;BME280;17439;48.092;11.842;2023-05-21T12:47:02;94946.88;;;29.81;25.10
30682;BME280;17439;48.092;11.842;2023-05-21T12:49:36;94945.22;;;29.83;24.88
30682;BME280;17439;48.092;11.842;2023-05-21T12:52:04;94938.41;;;29.84;25.19
30682;BME280;17439;48.092;11.842;2023-05-21T12:54:32;94947.56;;;29.85;25.65
30682;BME280;17439;48.092;11.842;2023-05-21T12:59:53;94940.75;;;29.86;25.26
30682;BME280;17439;48.092;11.842;2023-05-21T13:04:47;94940.75;;;29.86;26.01
30682;BME280;17439;48.092;11.842;2023-05-21T13:07:15;94939.19;;;29.85;26.74
30682;BME280;17439;48.092;11.842;2023-05-21T13:09:41;94931.94;;;29.88;26.97
30682;BME280;17439;48.092;11.842;2023-05-21T13:12:08;94940.81;;;29.95;26.21
30682;BME280;17439;48.092;11.842;2023-05-21T13:14:35;94936.91;;;30.06;25.29
30682;BME280;17439;48.092;11.842;2023-05-21T13:17:01;94937.56;;;30.10;26.28